Time;durP1;ratioP1;P1;durP2;ratioP2;P2;SDS_P1;SDS_P2;PMS_P1;PMS_P2;Temp;Humidity;BMP_temperature;BMP_pressure;BME280_temperature;BME280_humidity;BME280_pressure;Samples;Min_cycle;Max_cycle;Signal;HPM_P1;HPM_P2
2023/01/03 00:00:26;;;;;;;7.00;5.20;;;8.70;99.90;;;;;;5061130;28;21010;-74
2023/01/03 00:02:53;;;;;;;13.47;6.13;;;8.70;99.90;;;;;;5066150;28;20419;-74
2023/01/03 00:05:20;;;;;;;12.03;5.13;;;8.70;99.90;;;;;;5065085;28;20433;-74
2023/01/03 00:07:47;;;;;;;10.40;5.80;;;8.80;99.90;;;;;;5027315;28;20447;-74
2023/01/03 00:10:14;;;;;;;5.90;3.70;;;8.80;99.90;;;;;;5065978;28;20464;-74
2023/01/03 00:12:39;;;;;;;8.37;6.00;;;8.80;99.90;;;;;;5058095;28;20472;-74
2023/01/03 00:15:09;;;;;;;8.20;6.40;;;8.90;99.90;;;;;;5066309;28;20937;-74
2023/01/03 00:17:36;;;;;;;11.20;6.00;;;8.80;99.90;;;;;;5063466;28;20309;-74
2023/01/03 00:20:04;;;;;;;15.27;6.83;;;8.70;99.90;;;;;;5066046;28;20434;-74
2023/01/03 00:22:31;;;;;;;9.33;5.97;;;8.60;99.90;;;;;;5060245;28;20953;-74
2023/01/03 00:24:58;;;;;;;6.20;3.77;;;8.50;99.90;;;;;;5062292;28;20434;-74
2023/01/03 00:27:26;;;;;;;13.00;5.97;;;8.50;99.90;;;;;;5068442;28;20507;-72
2023/01/03 00:29:53;;;;;;;11.97;5.70;;;8.50;99.90;;;;;;5066763;28;20457;-73
2023/01/03 00:32:30;;;;;;;10.50;5.63;;;8.40;99.90;;;;;;5067852;28;20434;-72
2023/01/03 00:34:57;;;;;;;14.87;5.20;;;8.30;99.90;;;;;;5079868;28;20922;-72
2023/01/03 00:37:24;;;;;;;11.90;6.80;;;8.30;99.90;;;;;;5064697;28;20454;-72
2023/01/03 00:39:51;;;;;;;11.40;6.67;;;8.30;99.90;;;;;;5064954;28;20452;-72
2023/01/03 00:42:18;;;;;;;13.30;7.77;;;8.40;99.90;;;;;;5064449;28;20646;-73
2023/01/03 00:44:45;;;;;;;12.97;6.90;;;8.20;99.90;;;;;;5064522;28;21072;-74
2023/01/03 00:47:11;;;;;;;10.47;6.67;;;8.10;99.90;;;;;;5061794;28;20981;-73
2023/01/03 00:49:40;;;;;;;10.73;6.77;;;8.10;99.90;;;;;;5062284;28;20483;-73
2023/01/03 00:52:07;;;;;;;10.63;5.63;;;8.00;99.90;;;;;;5066898;28;20571;-73
2023/01/03 00:54:34;;;;;;;8.73;5.40;;;8.00;99.90;;;;;;5064729;28;20494;-73
2023/01/03 00:57:01;;;;;;;10.00;5.17;;;8.00;99.90;;;;;;5058902;28;20467;-73
2023/01/03 00:59:28;;;;;;;8.60;4.90;;;8.00;99.90;;;;;;5059657;28;20551;-74
2023/01/03 01:01:57;;;;;;;4.90;3.57;;;8.00;99.90;;;;;;5061425;28;20754;-73
2023/01/03 01:04:27;;;;;;;6.63;3.60;;;8.00;99.90;;;;;;5063590;28;20433;-73
2023/01/03 01:06:59;;;;;;;11.70;7.33;;;8.00;99.90;;;;;;5067118;28;20434;-74
2023/01/03 01:09:29;;;;;;;13.40;5.77;;;7.90;99.90;;;;;;5061362;28;20508;-74
2023/01/03 01:11:56;;;;;;;9.60;3.30;;;7.90;99.90;;;;;;5065361;28;20476;-73
2023/01/03 01:14:25;;;;;;;8.30;4.43;;;7.80;99.90;;;;;;5063082;28;20463;-73
2023/01/03 01:16:54;;;;;;;6.20;4.13;;;7.80;99.90;;;;;;5065234;28;20659;-73
2023/01/03 01:19:23;;;;;;;8.20;4.30;;;7.70;99.90;;;;;;5056894;28;20433;-73
2023/01/03 01:21:51;;;;;;;4.27;3.90;;;7.70;99.90;;;;;;5061026;28;20421;-74
2023/01/03 01:24:20;;;;;;;6.77;4.37;;;7.70;99.90;;;;;;5068952;28;20446;-73
2023/01/03 01:26:47;;;;;;;2.77;2.30;;;7.70;99.90;;;;;;5066158;28;20458;-74
2023/01/03 01:29:15;;;;;;;13.40;3.97;;;7.70;99.90;;;;;;5059567;28;20625;-73
2023/01/03 01:31:43;;;;;;;7.57;4.00;;;7.80;99.90;;;;;;5072879;28;20489;-73
2023/01/03 01:34:11;;;;;;;8.80;4.00;;;7.90;99.90;;;;;;5078216;28;20509;-73
2023/01/03 01:36:40;;;;;;;3.73;2.60;;;7.90;99.90;;;;;;5069455;28;20445;-73
2023/01/03 01:39:11;;;;;;;8.67;3.33;;;8.00;99.90;;;;;;5067950;28;21023;-73
2023/01/03 01:44:46;;;;;;;5.63;2.90;;;7.90;99.90;;;;;;5065438;28;20433;-74
2023/01/03 01:47:16;;;;;;;5.73;2.60;;;8.00;99.90;;;;;;5069244;28;20570;-74
2023/01/03 01:49:45;;;;;;;6.07;2.70;;;8.10;99.90;;;;;;5065965;28;21053;-74
2023/01/03 01:52:14;;;;;;;6.03;2.77;;;8.20;99.90;;;;;;5060792;28;20529;-74
2023/01/03 01:54:42;;;;;;;5.60;3.27;;;8.30;99.90;;;;;;5066015;28;21363;-72
2023/01/03 01:57:15;;;;;;;6.00;2.50;;;8.30;99.90;;;;;;5061456;28;20506;-72
2023/01/03 01:59:42;;;;;;;4.97;3.00;;;8.40;99.90;;;;;;5064797;28;20466;-73
2023/01/03 02:02:11;;;;;;;6.80;3.77;;;8.40;99.90;;;;;;5065657;28;20430;-72
2023/01/03 02:04:40;;;;;;;4.00;2.70;;;8.50;99.90;;;;;;5063070;28;20526;-72
2023/01/03 02:07:08;;;;;;;6.97;2.93;;;8.50;99.90;;;;;;5066275;28;20465;-72
2023/01/03 02:09:34;;;;;;;4.10;3.13;;;8.50;99.90;;;;;;5063503;28;20927;-73
2023/01/03 02:15:11;;;;;;;9.10;3.40;;;8.40;99.90;;;;;;5067962;28;21002;-73
2023/01/03 02:17:50;;;;;;;6.33;2.80;;;8.40;99.90;;;;;;5064626;28;20922;-73
2023/01/03 02:20:39;;;;;;;6.50;3.07;;;8.50;99.90;;;;;;5068219;28;20481;-73
2023/01/03 02:23:33;;;;;;;9.80;4.30;;;8.20;99.90;;;;;;5063741;28;20496;-72
2023/01/03 02:26:31;;;;;;;5.03;3.57;;;8.30;99.90;;;;;;5064188;28;20846;-73
2023/01/03 02:29:27;;;;;;;3.13;1.83;;;8.30;99.90;;;;;;5068494;28;20509;-72
2023/01/03 02:32:02;;;;;;;5.60;2.60;;;8.30;99.90;;;;;;5073506;28;20423;-72
2023/01/03 02:34:34;;;;;;;2.53;2.33;;;8.30;99.90;;;;;;5062463;28;20488;-73
2023/01/03 02:37:10;;;;;;;4.13;2.67;;;8.20;99.90;;;;;;5062915;28;20924;-72
2023/01/03 02:39:42;;;;;;;7.33;4.37;;;8.20;99.90;;;;;;5067642;28;20452;-72
2023/01/03 02:45:06;;;;;;;5.63;3.00;;;8.20;99.90;;;;;;5065936;28;20467;-73
2023/01/03 02:47:40;;;;;;;6.30;3.37;;;8.20;99.90;;;;;;5065258;28;20890;-72
2023/01/03 02:50:13;;;;;;;7.73;3.83;;;8.20;99.90;;;;;;5063383;28;20468;-73
2023/01/03 02:52:41;;;;;;;4.37;3.40;;;8.20;99.90;;;;;;5064665;28;20454;-72
2023/01/03 02:55:14;;;;;;;5.00;3.17;;;8.20;99.90;;;;;;5066238;28;20432;-72
2023/01/03 02:57:47;;;;;;;5.10;4.00;;;8.30;99.90;;;;;;5066985;28;20483;-74
2023/01/03 03:00:16;;;;;;;6.83;3.80;;;8.30;99.90;;;;;;5064084;28;20460;-74
2023/01/03 03:02:50;;;;;;;5.67;3.10;;;8.30;99.90;;;;;;5061334;28;20463;-73
2023/01/03 03:05:23;;;;;;;4.43;2.77;;;8.20;99.90;;;;;;5063629;28;20431;-73
2023/01/03 03:07:52;;;;;;;3.37;2.90;;;8.20;99.90;;;;;;5063919;28;20457;-73
2023/01/03 03:13:19;;;;;;;7.70;3.23;;;8.20;99.90;;;;;;5060832;28;20442;-73
2023/01/03 03:15:55;;;;;;;10.23;3.30;;;8.30;99.90;;;;;;5064172;28;20433;-73
2023/01/03 03:18:33;;;;;;;6.30;4.20;;;8.20;99.90;;;;;;5064634;28;20475;-73
2023/01/03 03:26:37;;;;;;;10.23;4.50;;;8.30;99.90;;;;;;5063213;28;20950;-73
2023/01/03 03:29:07;;;;;;;9.50;3.60;;;8.30;99.90;;;;;;5069107;28;20560;-74
2023/01/03 03:31:39;;;;;;;5.93;3.87;;;8.20;99.90;;;;;;5072533;28;20509;-73
2023/01/03 03:34:11;;;;;;;5.97;4.83;;;8.10;99.90;;;;;;5068789;28;20425;-73
2023/01/03 03:36:45;;;;;;;3.43;3.13;;;8.00;99.90;;;;;;5069789;28;20518;-73
2023/01/03 03:45:00;;;;;;;2.70;2.27;;;7.80;99.90;;;;;;5059004;28;20452;-73
2023/01/03 03:47:35;;;;;;;14.10;5.20;;;7.90;99.90;;;;;;5058463;28;20533;-72
2023/01/03 03:50:08;;;;;;;10.67;5.80;;;7.80;99.90;;;;;;5063808;28;20814;-72
2023/01/03 03:52:36;;;;;;;4.97;3.53;;;7.70;99.90;;;;;;5061844;28;20459;-72
2023/01/03 03:55:09;;;;;;;7.03;4.87;;;7.60;99.90;;;;;;5064038;28;20449;-73
2023/01/03 03:57:42;;;;;;;7.03;3.73;;;7.50;99.90;;;;;;5065411;28;20749;-73
2023/01/03 04:00:15;;;;;;;11.10;4.60;;;7.50;99.90;;;;;;5061588;28;20429;-73
2023/01/03 04:02:46;;;;;;;7.67;4.87;;;7.50;99.90;;;;;;5064261;28;20454;-73
2023/01/03 04:05:19;;;;;;;7.17;4.80;;;7.50;99.90;;;;;;5062912;28;20907;-73
2023/01/03 04:07:46;;;;;;;5.40;3.73;;;7.40;99.90;;;;;;5056510;28;20480;-73
2023/01/03 04:10:18;;;;;;;11.90;5.07;;;7.20;99.90;;;;;;5065372;28;20576;-73
2023/01/03 04:12:46;;;;;;;9.60;4.67;;;7.30;99.90;;;;;;5058245;28;20444;-73
2023/01/03 04:15:13;;;;;;;11.80;6.23;;;7.10;99.90;;;;;;5063071;28;20441;-73
2023/01/03 04:17:40;;;;;;;7.07;4.70;;;7.10;99.90;;;;;;5067453;28;20561;-73
2023/01/03 04:20:08;;;;;;;13.77;4.97;;;7.10;99.90;;;;;;5058970;28;20520;-73
2023/01/03 04:22:36;;;;;;;8.53;5.27;;;7.00;99.90;;;;;;5061197;28;20823;-73
2023/01/03 04:25:04;;;;;;;12.33;4.83;;;7.10;99.90;;;;;;5063416;28;21346;-73
2023/01/03 04:27:31;;;;;;;8.10;4.50;;;7.00;99.90;;;;;;5068154;28;20518;-72
2023/01/03 04:29:58;;;;;;;11.73;5.30;;;7.00;99.90;;;;;;5079201;28;20573;-73
2023/01/03 04:32:25;;;;;;;10.57;5.23;;;7.00;99.90;;;;;;5062398;28;20429;-73
2023/01/03 04:34:52;;;;;;;7.93;4.37;;;6.90;99.90;;;;;;5061026;28;20639;-73
2023/01/03 04:37:19;;;;;;;7.63;4.50;;;6.90;99.90;;;;;;5059289;28;20901;-74
2023/01/03 04:39:47;;;;;;;9.57;5.60;;;6.80;99.90;;;;;;5063779;28;20465;-74
2023/01/03 04:44:59;;;;;;;12.27;5.97;;;6.70;99.90;;;;;;5067276;28;20494;-74
2023/01/03 04:47:27;;;;;;;8.30;4.53;;;6.50;99.90;;;;;;5064129;28;20446;-73
2023/01/03 04:49:54;;;;;;;5.60;4.20;;;6.50;99.90;;;;;;5064735;28;20537;-73
2023/01/03 04:52:21;;;;;;;11.53;4.93;;;6.50;99.90;;;;;;5062525;28;20498;-73
2023/01/03 04:54:50;;;;;;;7.13;4.77;;;6.50;99.90;;;;;;5066762;28;20545;-74
2023/01/03 04:57:17;;;;;;;7.47;5.53;;;6.50;99.90;;;;;;5065018;28;20512;-72
2023/01/03 04:59:43;;;;;;;10.87;6.03;;;6.50;99.90;;;;;;5062163;28;20451;-74
2023/01/03 05:02:10;;;;;;;10.80;5.43;;;6.60;99.90;;;;;;5067428;28;20476;-73
2023/01/03 05:04:40;;;;;;;15.50;6.70;;;6.60;99.90;;;;;;5066029;28;20547;-73
2023/01/03 05:07:07;;;;;;;9.60;5.27;;;6.60;99.90;;;;;;5068038;28;20418;-73
2023/01/03 05:09:34;;;;;;;8.63;4.87;;;6.50;99.90;;;;;;5068494;28;20956;-73
2023/01/03 05:12:02;;;;;;;10.50;5.87;;;6.50;99.90;;;;;;5069461;28;20509;-72
2023/01/03 05:14:29;;;;;;;10.73;5.80;;;6.50;99.90;;;;;;5077239;28;20461;-73
2023/01/03 05:16:56;;;;;;;12.03;5.23;;;6.60;99.90;;;;;;5063175;28;20447;-72
2023/01/03 05:19:23;;;;;;;8.80;5.10;;;6.70;99.90;;;;;;5068054;28;20843;-72
2023/01/03 05:27:20;;;;;;;11.47;6.70;;;6.80;99.90;;;;;;5074692;28;20840;-72
2023/01/03 05:29:49;;;;;;;11.93;5.47;;;6.80;99.90;;;;;;5068007;28;20484;-73
2023/01/03 05:32:16;;;;;;;9.10;6.33;;;6.90;99.90;;;;;;5065209;28;21013;-72
2023/01/03 05:34:43;;;;;;;17.73;8.10;;;6.90;99.90;;;;;;5069811;28;20470;-72
2023/01/03 05:37:10;;;;;;;10.13;5.73;;;6.80;99.90;;;;;;5067141;28;20458;-72
2023/01/03 05:39:37;;;;;;;12.90;7.00;;;6.80;99.90;;;;;;5071512;28;20443;-73
2023/01/03 05:42:04;;;;;;;11.63;6.87;;;6.80;99.90;;;;;;5073491;28;20457;-73
2023/01/03 05:44:34;;;;;;;12.10;7.20;;;6.80;99.90;;;;;;5066185;28;20555;-73
2023/01/03 05:47:03;;;;;;;13.57;7.33;;;6.70;99.90;;;;;;5067596;28;20467;-73
2023/01/03 05:49:29;;;;;;;12.33;7.30;;;6.70;99.90;;;;;;5064440;28;20868;-73
2023/01/03 05:51:56;;;;;;;12.13;6.70;;;6.60;99.90;;;;;;5079757;28;20437;-73
2023/01/03 05:54:23;;;;;;;15.77;7.70;;;6.50;99.90;;;;;;5068699;28;20552;-73
2023/01/03 05:56:52;;;;;;;11.93;7.30;;;6.50;99.90;;;;;;5071209;28;20546;-73
2023/01/03 05:59:21;;;;;;;9.37;6.83;;;6.40;99.90;;;;;;5070809;28;20417;-73
2023/01/03 06:01:50;;;;;;;8.27;4.13;;;6.30;99.90;;;;;;5072035;28;20459;-73
2023/01/03 06:04:17;;;;;;;10.40;5.50;;;6.30;99.90;;;;;;5066559;28;20495;-73
2023/01/03 06:06:44;;;;;;;8.87;5.00;;;6.40;99.90;;;;;;5067225;28;20541;-74
2023/01/03 06:09:11;;;;;;;9.90;5.30;;;6.40;99.90;;;;;;5066336;28;20567;-73
2023/01/03 06:11:39;;;;;;;10.43;5.27;;;6.40;99.90;;;;;;5065457;28;20552;-73
2023/01/03 06:14:06;;;;;;;10.00;5.60;;;6.40;99.90;;;;;;5066954;28;20545;-73
2023/01/03 06:19:19;;;;;;;8.87;4.80;;;5.90;99.90;;;;;;5071462;28;20424;-73
2023/01/03 06:21:45;;;;;;;15.33;6.83;;;5.80;99.90;;;;;;5075151;28;20800;-73
2023/01/03 06:24:12;;;;;;;6.27;4.47;;;5.70;99.90;;;;;;5067581;28;20468;-72
2023/01/03 06:26:40;;;;;;;8.77;5.60;;;5.60;99.90;;;;;;5074600;28;20505;-73
2023/01/03 06:29:07;;;;;;;10.17;5.73;;;5.60;99.90;;;;;;5068094;28;20478;-72
2023/01/03 06:31:34;;;;;;;11.37;3.93;;;5.60;99.90;;;;;;5066757;28;20986;-73
2023/01/03 06:34:02;;;;;;;8.60;4.87;;;5.50;99.90;;;;;;5027075;28;20558;-72
2023/01/03 06:36:33;;;;;;;9.17;5.00;;;5.50;99.90;;;;;;5057312;28;20451;-72
2023/01/03 06:39:00;;;;;;;8.53;4.83;;;5.50;99.90;;;;;;5065775;28;20515;-72
2023/01/03 06:41:27;;;;;;;6.27;3.30;;;5.50;99.90;;;;;;5061367;28;20460;-72
2023/01/03 06:43:55;;;;;;;9.53;4.70;;;5.60;99.90;;;;;;5067127;28;20434;-73
2023/01/03 06:54:39;;;;;;;9.77;4.27;;;5.80;99.90;;;;;;5064343;28;20474;-74
2023/01/03 06:57:06;;;;;;;8.83;4.57;;;5.80;99.90;;;;;;5064350;28;20497;-73
2023/01/03 06:59:33;;;;;;;7.97;3.47;;;5.80;99.90;;;;;;5059618;28;20557;-74
2023/01/03 07:02:00;;;;;;;8.37;4.40;;;5.90;99.90;;;;;;5065320;28;20548;-73
2023/01/03 07:04:27;;;;;;;8.23;4.47;;;5.90;99.90;;;;;;5066784;28;20544;-73
2023/01/03 07:06:55;;;;;;;7.03;3.27;;;5.90;99.90;;;;;;5062725;28;20471;-73
2023/01/03 07:09:23;;;;;;;16.60;4.63;;;6.00;99.90;;;;;;5062764;28;20433;-73
2023/01/03 07:11:50;;;;;;;5.40;3.60;;;6.00;99.90;;;;;;5064594;28;20453;-74
2023/01/03 07:14:17;;;;;;;6.60;3.53;;;6.00;99.90;;;;;;5061952;28;20498;-73
2023/01/03 07:16:45;;;;;;;5.10;4.37;;;6.10;99.90;;;;;;5068152;28;20454;-74
2023/01/03 07:19:15;;;;;;;8.00;3.70;;;6.30;99.90;;;;;;5070126;28;20453;-73
2023/01/03 07:21:42;;;;;;;11.33;3.20;;;6.30;99.90;;;;;;5068544;28;20829;-73
2023/01/03 07:24:13;;;;;;;10.43;5.03;;;6.50;99.90;;;;;;5077590;28;20439;-72
2023/01/03 07:26:40;;;;;;;7.27;3.80;;;6.50;99.90;;;;;;5064756;28;20433;-74
2023/01/03 07:29:10;;;;;;;5.10;3.67;;;6.60;99.90;;;;;;5061156;28;20509;-74
2023/01/03 07:31:39;;;;;;;4.33;3.10;;;6.60;99.90;;;;;;5057369;28;20559;-74
2023/01/03 07:34:07;;;;;;;4.30;3.13;;;6.70;99.90;;;;;;5065172;28;20522;-74
2023/01/03 07:36:34;;;;;;;9.20;4.93;;;6.80;99.90;;;;;;5058715;28;20463;-74
2023/01/03 07:39:01;;;;;;;9.10;4.30;;;6.90;99.90;;;;;;5070952;28;20553;-74
2023/01/03 07:44:10;;;;;;;5.87;3.90;;;6.90;99.90;;;;;;5064956;28;20456;-74
2023/01/03 07:46:39;;;;;;;4.20;3.67;;;6.80;99.90;;;;;;5064405;28;20442;-74
2023/01/03 07:49:06;;;;;;;6.13;3.83;;;6.80;99.90;;;;;;5058731;28;20840;-74
2023/01/03 07:51:33;;;;;;;3.90;2.60;;;7.00;99.90;;;;;;5064194;28;20467;-74
2023/01/03 07:54:03;;;;;;;4.60;4.00;;;7.10;99.90;;;;;;5066146;28;21038;-74
2023/01/03 07:56:31;;;;;;;5.23;3.27;;;7.00;99.90;;;;;;5043479;28;20439;-73
2023/01/03 07:58:59;;;;;;;4.70;3.13;;;7.00;99.90;;;;;;5065721;28;20591;-74
2023/01/03 08:01:28;;;;;;;12.63;4.27;;;7.00;99.90;;;;;;5064165;28;20455;-74
2023/01/03 08:03:55;;;;;;;7.03;3.50;;;7.00;99.90;;;;;;5065958;28;20563;-74
2023/01/03 08:06:24;;;;;;;4.47;3.00;;;6.90;99.90;;;;;;5064503;28;20929;-73
2023/01/03 08:14:19;;;;;;;3.00;2.70;;;6.70;99.90;;;;;;5063969;28;20446;-73
2023/01/03 08:16:46;;;;;;;6.90;3.23;;;6.70;99.90;;;;;;5057003;28;20512;-73
2023/01/03 08:19:13;;;;;;;6.20;4.60;;;6.80;99.90;;;;;;5038089;28;20449;-73
2023/01/03 08:21:40;;;;;;;4.13;3.27;;;6.70;99.90;;;;;;5063293;28;20452;-72
2023/01/03 08:24:07;;;;;;;6.10;3.07;;;6.50;99.90;;;;;;5077995;28;20611;-73
2023/01/03 08:26:38;;;;;;;3.47;2.87;;;6.50;99.90;;;;;;5066694;28;20508;-74
2023/01/03 08:29:06;;;;;;;4.27;3.20;;;6.70;99.90;;;;;;5066966;28;20434;-73
2023/01/03 08:31:38;;;;;;;8.60;4.00;;;6.70;99.90;;;;;;5066922;28;20998;-73
2023/01/03 08:34:08;;;;;;;9.13;2.47;;;6.80;99.90;;;;;;5062134;28;20535;-73
2023/01/03 08:36:40;;;;;;;4.97;3.00;;;6.80;99.90;;;;;;5072974;28;20506;-73
2023/01/03 08:39:09;;;;;;;14.60;5.23;;;6.80;99.90;;;;;;5072829;28;20524;-74
2023/01/03 08:41:42;;;;;;;4.87;3.77;;;6.80;99.90;;;;;;5070509;28;20795;-74
2023/01/03 08:44:10;;;;;;;5.10;3.80;;;6.90;99.90;;;;;;5064510;28;20501;-73
2023/01/03 08:46:40;;;;;;;4.63;3.70;;;7.10;99.90;;;;;;5071892;28;20441;-73
2023/01/03 08:49:07;;;;;;;4.17;2.40;;;7.40;99.90;;;;;;5070645;28;20538;-73
2023/01/03 08:51:34;;;;;;;3.20;2.70;;;7.70;99.90;;;;;;5068209;28;20465;-72
2023/01/03 08:54:01;;;;;;;5.70;2.37;;;8.30;99.90;;;;;;5069660;28;20479;-72
2023/01/03 08:56:28;;;;;;;4.77;1.70;;;8.50;99.90;;;;;;5072758;28;20491;-73
2023/01/03 08:58:57;;;;;;;3.40;2.40;;;8.60;99.90;;;;;;5073625;28;20528;-72
2023/01/03 09:01:24;;;;;;;2.23;2.03;;;8.70;99.90;;;;;;5077060;28;20430;-73
2023/01/03 09:03:51;;;;;;;4.73;2.20;;;8.70;99.90;;;;;;5069607;28;20755;-72
2023/01/03 09:06:18;;;;;;;5.13;3.10;;;8.80;99.90;;;;;;5071306;28;20439;-73
2023/01/03 09:08:45;;;;;;;4.47;2.37;;;8.80;99.90;;;;;;5063455;28;20498;-73
2023/01/03 09:11:12;;;;;;;4.00;2.80;;;8.80;99.90;;;;;;5072052;28;20588;-73
2023/01/03 09:13:39;;;;;;;7.60;2.57;;;8.90;99.90;;;;;;5065995;28;20975;-74
2023/01/03 09:16:10;;;;;;;3.33;2.57;;;9.00;99.90;;;;;;5071339;28;20434;-73
2023/01/03 09:18:37;;;;;;;1.90;1.70;;;9.10;99.90;;;;;;5070953;28;20479;-73
2023/01/03 09:21:05;;;;;;;3.77;2.27;;;9.00;99.90;;;;;;5045297;28;20478;-72
2023/01/03 09:23:34;;;;;;;2.93;1.60;;;9.10;99.90;;;;;;5076642;28;20954;-73
2023/01/03 09:26:01;;;;;;;3.07;2.23;;;9.10;99.90;;;;;;5071503;28;20457;-72
2023/01/03 09:28:30;;;;;;;1.40;1.23;;;9.30;99.90;;;;;;5072916;28;20467;-72
2023/01/03 09:30:59;;;;;;;2.93;2.03;;;9.30;99.90;;;;;;5061907;28;20459;-73
2023/01/03 09:33:29;;;;;;;1.83;1.60;;;9.50;99.90;;;;;;5070462;28;20474;-73
2023/01/03 09:35:56;;;;;;;4.47;2.00;;;9.70;99.90;;;;;;5073192;28;20850;-73
2023/01/03 09:38:23;;;;;;;3.47;1.90;;;9.70;99.90;;;;;;5068688;28;20488;-73
2023/01/03 09:40:59;;;;;;;2.93;2.43;;;9.70;99.90;;;;;;5071453;28;20459;-74
2023/01/03 09:43:35;;;;;;;3.27;1.47;;;9.80;99.90;;;;;;5071265;28;20529;-73
2023/01/03 09:46:04;;;;;;;3.33;1.43;;;10.00;99.90;;;;;;5062373;28;20515;-73
2023/01/03 09:48:36;;;;;;;5.17;2.37;;;10.20;99.90;;;;;;5061875;28;21513;-73
2023/01/03 10:03:41;;;;;;;1.50;1.40;;;10.30;99.90;;;;;;5063956;28;20469;-72
2023/01/03 10:05:26;;;;;;;1.60;1.30;;;10.70;99.90;;;;;;5062108;28;20561;-73
2023/01/03 10:08:32;;;;;;;1.93;1.60;;;10.50;99.90;;;;;;5066482;28;20484;-73
2023/01/03 10:11:06;;;;;;;2.03;1.50;;;10.40;99.90;;;;;;5057146;28;20452;-73
2023/01/03 10:13:54;;;;;;;1.10;1.00;;;10.40;99.90;;;;;;5065040;28;20478;-72
2023/01/03 10:16:33;;;;;;;1.30;1.00;;;10.40;99.90;;;;;;5064142;28;20489;-73
2023/01/03 10:19:45;;;;;;;2.07;1.80;;;10.50;99.90;;;;;;5065538;28;20516;-73
2023/01/03 10:22:17;;;;;;;1.50;1.30;;;10.50;99.90;;;;;;5043907;28;20547;-73
2023/01/03 10:24:47;;;;;;;1.77;1.57;;;10.80;99.90;;;;;;5061773;28;20511;-73
2023/01/03 10:27:16;;;;;;;2.13;1.13;;;10.80;99.90;;;;;;5065500;28;20513;-74
2023/01/03 10:29:44;;;;;;;3.00;1.53;;;10.90;99.90;;;;;;5065272;28;20466;-73
2023/01/03 10:32:44;;;;;;;1.77;1.50;;;10.80;99.90;;;;;;5060666;28;21325;-73
2023/01/03 10:35:20;;;;;;;2.50;1.50;;;10.50;99.90;;;;;;5062022;28;20462;-73
2023/01/03 10:37:51;;;;;;;1.40;1.10;;;10.50;99.90;;;;;;5058254;28;20488;-73
2023/01/03 10:40:18;;;;;;;1.53;1.20;;;10.50;99.90;;;;;;5055252;28;20465;-74
2023/01/03 10:42:49;;;;;;;1.83;1.53;;;10.50;99.90;;;;;;5052968;28;20552;-73
2023/01/03 10:45:18;;;;;;;3.37;1.63;;;10.50;99.90;;;;;;5056458;28;20548;-73
2023/01/03 10:47:57;;;;;;;1.50;1.40;;;10.40;99.90;;;;;;5056093;28;20997;-72
2023/01/03 10:50:25;;;;;;;13.00;1.50;;;10.40;99.90;;;;;;5058250;28;20491;-72
2023/01/03 10:52:58;;;;;;;1.57;0.90;;;10.40;99.90;;;;;;5056964;28;20482;-72
2023/01/03 10:55:28;;;;;;;1.60;1.23;;;10.50;99.90;;;;;;5060818;28;20462;-73
2023/01/03 10:58:01;;;;;;;1.20;1.10;;;10.70;99.90;;;;;;5058201;28;20571;-73
2023/01/03 11:00:33;;;;;;;1.93;1.50;;;10.80;99.90;;;;;;5056890;28;20460;-73
2023/01/03 11:03:16;;;;;;;2.80;1.40;;;10.90;99.90;;;;;;5055375;28;20508;-74
2023/01/03 11:05:45;;;;;;;2.30;1.20;;;10.90;99.90;;;;;;5062933;28;20473;-74
2023/01/03 11:08:22;;;;;;;1.83;1.30;;;10.70;99.90;;;;;;5058633;28;20530;-72
2023/01/03 11:10:52;;;;;;;3.00;1.70;;;10.60;99.90;;;;;;5059263;28;20461;-74
2023/01/03 11:13:27;;;;;;;4.37;2.13;;;10.50;99.90;;;;;;5062086;28;20455;-73
2023/01/03 11:15:55;;;;;;;3.10;1.63;;;10.50;99.90;;;;;;5060133;28;20467;-74
2023/01/03 11:18:22;;;;;;;1.43;1.10;;;10.70;99.90;;;;;;5072800;28;20533;-74
2023/01/03 11:21:00;;;;;;;1.50;1.00;;;10.70;99.90;;;;;;5064358;28;20873;-74
2023/01/03 11:24:07;;;;;;;4.63;1.50;;;10.70;99.90;;;;;;5059571;28;20541;-73
2023/01/03 11:26:42;;;;;;;1.80;1.50;;;10.70;99.90;;;;;;5051398;28;20575;-75
2023/01/03 11:29:30;;;;;;;2.03;1.40;;;10.70;99.90;;;;;;5057533;28;20483;-74
2023/01/03 11:32:09;;;;;;;3.13;1.70;;;10.50;99.90;;;;;;5060002;28;21879;-73
2023/01/03 11:35:03;;;;;;;1.90;1.27;;;10.50;99.90;;;;;;5061285;28;20461;-73
2023/01/03 11:37:37;;;;;;;4.20;1.50;;;10.40;99.90;;;;;;5051893;28;20596;-73
2023/01/03 11:40:26;;;;;;;1.50;1.40;;;10.30;99.90;;;;;;5052853;28;20458;-73
2023/01/03 11:43:06;;;;;;;1.73;1.60;;;10.40;99.90;;;;;;5062570;28;21178;-73
2023/01/03 11:45:58;;;;;;;1.60;1.50;;;10.40;99.90;;;;;;5056619;28;20524;-73
2023/01/03 11:48:56;;;;;;;5.37;1.73;;;10.40;99.90;;;;;;5062181;28;20487;-73
2023/01/03 11:51:35;;;;;;;1.40;1.30;;;10.40;99.90;;;;;;5062007;28;20807;-73
2023/01/03 11:54:08;;;;;;;5.43;1.30;;;10.30;99.90;;;;;;5053000;28;20782;-73
2023/01/03 11:56:40;;;;;;;1.20;0.93;;;10.30;99.90;;;;;;5057246;28;20455;-74
2023/01/03 11:59:34;;;;;;;2.30;2.00;;;10.30;99.90;;;;;;5052741;28;20736;-73
2023/01/03 12:02:46;;;;;;;1.30;1.00;;;10.50;99.90;;;;;;5051873;28;20488;-74
2023/01/03 12:05:34;;;;;;;3.43;1.50;;;10.40;99.90;;;;;;5057217;28;20453;-73
2023/01/03 12:08:14;;;;;;;1.97;1.47;;;10.30;99.90;;;;;;5059621;28;20448;-73
2023/01/03 12:10:50;;;;;;;1.43;1.23;;;10.20;99.90;;;;;;5062644;28;20441;-73
2023/01/03 12:13:27;;;;;;;2.43;1.70;;;10.20;99.90;;;;;;5051829;28;20515;-74
2023/01/03 12:16:01;;;;;;;1.33;1.00;;;10.20;99.90;;;;;;5062640;28;20525;-74
2023/01/03 12:18:39;;;;;;;3.47;1.60;;;10.30;99.90;;;;;;5075560;28;20460;-71
2023/01/03 12:21:11;;;;;;;1.50;1.40;;;10.20;99.90;;;;;;5061483;28;20444;-74
2023/01/03 12:23:43;;;;;;;2.43;1.33;;;10.20;99.90;;;;;;5062236;28;20467;-74
2023/01/03 12:26:14;;;;;;;2.80;1.50;;;10.00;99.90;;;;;;5058855;28;20462;-74
2023/01/03 12:28:48;;;;;;;3.20;2.27;;;10.10;99.90;;;;;;5059812;28;20450;-72
2023/01/03 12:31:24;;;;;;;2.90;1.63;;;10.20;99.90;;;;;;5065486;28;20556;-72
2023/01/03 12:34:02;;;;;;;5.27;2.93;;;10.20;99.90;;;;;;5065205;28;20476;-72
2023/01/03 12:36:38;;;;;;;3.70;1.60;;;10.40;99.90;;;;;;5063691;28;20483;-73
2023/01/03 12:39:23;;;;;;;14.33;1.77;;;10.40;99.90;;;;;;5056925;28;20936;-72
2023/01/03 12:42:00;;;;;;;7.20;2.87;;;11.00;99.90;;;;;;5058809;28;20432;-72
2023/01/03 12:44:36;;;;;;;3.10;1.83;;;11.20;99.90;;;;;;5059699;28;20568;-73
2023/01/03 12:47:05;;;;;;;2.10;1.33;;;11.10;99.90;;;;;;5056386;28;20526;-72
2023/01/03 12:49:36;;;;;;;4.27;1.43;;;11.00;99.90;;;;;;5061647;28;20952;-72
2023/01/03 12:52:04;;;;;;;2.70;1.47;;;10.80;99.90;;;;;;5061331;28;20568;-72
2023/01/03 12:54:41;;;;;;;2.00;1.57;;;10.80;99.90;;;;;;5057361;28;20523;-73
2023/01/03 12:57:41;;;;;;;1.73;1.20;;;10.80;99.90;;;;;;5059596;28;20440;-73
2023/01/03 13:00:40;;;;;;;4.00;1.67;;;11.40;99.90;;;;;;5057274;28;20606;-74
2023/01/03 13:03:18;;;;;;;4.37;1.70;;;12.10;99.90;;;;;;5059058;28;21244;-73
2023/01/03 13:05:49;;;;;;;2.20;1.83;;;12.80;99.90;;;;;;5063160;28;20775;-74
2023/01/03 13:08:26;;;;;;;1.83;1.67;;;13.50;99.90;;;;;;5055861;28;20506;-73
2023/01/03 13:10:56;;;;;;;2.57;2.23;;;14.00;99.90;;;;;;5051500;28;20487;-73
2023/01/03 13:13:23;;;;;;;2.10;1.43;;;14.50;99.90;;;;;;5055375;28;20474;-74
2023/01/03 13:15:51;;;;;;;1.60;1.27;;;14.90;99.90;;;;;;5066850;28;20466;-73
2023/01/03 13:18:34;;;;;;;1.50;1.20;;;14.90;99.90;;;;;;5072155;28;20478;-73
2023/01/03 13:21:21;;;;;;;3.00;0.97;;;14.50;99.90;;;;;;5064672;28;20456;-74
2023/01/03 13:24:00;;;;;;;2.60;1.17;;;14.20;99.90;;;;;;5064295;28;20533;-73
2023/01/03 13:26:28;;;;;;;1.80;1.10;;;14.10;99.90;;;;;;5065749;28;20540;-73
2023/01/03 13:29:45;;;;;;;1.50;1.37;;;14.20;99.90;;;;;;5070700;28;20514;-73
2023/01/03 13:32:17;;;;;;;1.80;1.40;;;14.50;99.90;;;;;;5020613;28;20571;-74
2023/01/03 13:35:30;;;;;;;1.67;1.10;;;15.20;99.90;;;;;;5065453;28;20455;-73
2023/01/03 13:38:11;;;;;;;1.40;1.10;;;15.20;99.90;;;;;;5064563;28;20978;-73
2023/01/03 13:40:38;;;;;;;2.53;1.23;;;15.40;99.90;;;;;;5065354;28;20459;-74
2023/01/03 13:43:16;;;;;;;1.33;1.10;;;14.80;99.90;;;;;;5071067;28;20543;-75
2023/01/03 13:45:54;;;;;;;1.73;1.10;;;14.10;99.90;;;;;;5074447;28;20540;-72
2023/01/03 13:48:24;;;;;;;2.03;1.30;;;14.10;99.90;;;;;;5069479;28;20609;-73
2023/01/03 13:51:27;;;;;;;1.50;1.30;;;14.30;99.90;;;;;;5074852;28;20421;-73
2023/01/03 13:54:00;;;;;;;2.23;1.13;;;14.60;99.90;;;;;;5067895;28;20503;-73
2023/01/03 13:56:30;;;;;;;1.23;0.93;;;15.30;99.90;;;;;;5066843;28;20560;-73
2023/01/03 13:59:17;;;;;;;2.07;1.10;;;15.60;99.90;;;;;;5066160;28;20577;-73
2023/01/03 14:02:04;;;;;;;1.40;0.90;;;14.10;99.90;;;;;;5070203;28;20442;-73
2023/01/03 14:05:02;;;;;;;2.30;1.53;;;13.30;99.90;;;;;;5065870;28;20966;-73
2023/01/03 14:08:01;;;;;;;3.03;1.50;;;12.40;99.90;;;;;;5039915;28;20925;-73
2023/01/03 14:10:59;;;;;;;1.37;1.07;;;12.00;99.90;;;;;;5064940;28;20493;-73
2023/01/03 14:13:38;;;;;;;1.47;1.00;;;11.80;99.90;;;;;;5064277;28;20495;-73
2023/01/03 14:16:26;;;;;;;1.40;0.93;;;11.80;99.90;;;;;;5083899;28;20566;-73
2023/01/03 14:19:06;;;;;;;4.93;1.00;;;11.90;99.90;;;;;;5070867;28;20570;-73
2023/01/03 14:21:45;;;;;;;2.17;1.00;;;11.70;99.90;;;;;;5067646;28;20452;-72